Nearby METAR* Reports

*"METAR [Météorologique Aviation Régulière] is the international standard code format for hourly surface weather observations which is analogous to the SA coding currently used in the US. The acronym roughly translates from French as Aviation Routine Weather Report." (Source: https://www.ncdc.noaa.gov/wdcmet/data-access-search-viewer-tools/metar-terminal-aerodrome-forecast-taf-faq)

 

KTEB - Teterboro, New Jersey, USA
Distance from station: ENE 2mi, 3km
Updated: 01/18/2021 10:51pm
Overcast
Overcast
 Wind from W
Wind: W 7 mph , 11 km/h
Temperature: 37°F , 3°C
Wind Chill: 32°F , 0°C
Dew Point: 28°F , -2°C
Humidity: 70%
Barometer: 29.93 inHg , 1013.5 hPa
Clouds: Overcast
Visibility: 10 miles , 16 km
Cloud details: Overcast 4800 ft
2021/01/19 03:51 KTEB 190351Z 27006KT 10SM OVC048 03/M02 A2993 RMK AO2 SLP134 T00281022
KNYC - Nyc/Central Park, New York, USA
Distance from station: SE 8mi, 13km
Updated: 01/18/2021 10:51pm
Overcast
Overcast
 Wind from WSW
Wind: WSW 3 mph , 6 km/h
Temperature: 37°F , 3°C
Dew Point: 27°F , -3°C
Humidity: 65%
Barometer: 29.95 inHg , 1014.2 hPa
Clouds: Overcast
Visibility: 10 miles , 16 km
Cloud details: Overcast 4600 ft
2021/01/19 03:51 KNYC 190351Z AUTO 24003KT 10SM OVC046 03/M03 A2995 RMK AO2 SLP134 T00331028 $
KCDW - Caldwell, New Jersey, USA
Distance from station: W 11mi, 17km
Updated: 01/18/2021 10:53pm
Overcast
Overcast
 Wind from WSW
Wind: WSW 3 mph , 6 km/h
Temperature: 37°F , 3°C
Dew Point: 27°F , -3°C
Humidity: 65%
Barometer: 29.94 inHg , 1013.9 hPa
Clouds: Overcast
Visibility: 10 miles , 16 km
Cloud details: Overcast 4900 ft
2021/01/19 03:53 KCDW 190353Z 25003KT 10SM OVC049 03/M03 A2994 RMK AO2 SLP145 T00331028
 
KLGA - Nyc/La Guardia, New York, USA
Distance from station: ESE 12mi, 19km
Updated: 01/18/2021 10:51pm
Mostly cloudy
Mostly cloudy
 Wind from W
Wind: W 12 mph , 19 km/h
Temperature: 41°F , 5°C
Wind Chill: 34°F , 1°C
Dew Point: 27°F , -3°C
Humidity: 57%
Barometer: 29.93 inHg , 1013.5 hPa
Clouds: Mostly cloudy
Visibility: 10 miles , 16 km
Cloud details: Mostly cloudy 4800 ft
2021/01/19 03:51 KLGA 190351Z 26010KT 10SM BKN048 05/M03 A2993 RMK AO2 SLP134 T00501028
KEWR - Newark, New Jersey, USA
Distance from station: SSW 13mi, 20km
Updated: 01/18/2021 10:51pm
Few Clouds
Few Clouds
 Wind from WSW
Wind: WSW 16 mph , 26 km/h
Temperature: 37°F , 3°C
Wind Chill: 28°F , -2°C
Dew Point: 25°F , -4°C
Humidity: 60%
Barometer: 29.95 inHg , 1014.2 hPa
Clouds: Few Clouds
Visibility: 10 miles , 16 km
Cloud details: Few Clouds 5000 ft
Few Clouds 9000 ft
2021/01/19 03:51 KEWR 190351Z 25014KT 10SM FEW050 FEW090 03/M04 A2995 RMK AO2 SLP142 T00281039
KMMU - Morristown Muni, New Jersey, USA
Distance from station: WSW 18mi, 29km
Updated: 01/18/2021 11:13pm
Partly cloudy
Partly cloudy
 Wind from SSW
Wind: SSW 6 mph , 9 km/h
Temperature: 34°F , 1°C
Wind Chill: 29°F , -2°C
Dew Point: 27°F , -3°C
Humidity: 75%
Barometer: 29.94 inHg , 1013.9 hPa
Clouds: Partly cloudy
Visibility: 10 miles , 16 km
Cloud details: Partly cloudy 8500 ft
2021/01/19 04:13 KMMU 190413Z AUTO 21005KT 10SM SCT085 01/M03 A2994 RMK AO2
 
KLDJ - Linden, New Jersey, USA
Distance from station: SSW 19mi, 30km
Updated: 01/18/2021 11:35pm
Clear
Clear
 Wind from W
Wind: W 8 mph , 13 km/h
Temperature: 36°F , 2°C
Wind Chill: 30°F , -1°C
Dew Point: 23°F , -5°C
Humidity: 60%
Barometer: 29.97 inHg , 1014.9 hPa
Clouds: Clear
Visibility: 10 miles , 16 km
2021/01/19 04:35 KLDJ 190435Z AUTO 27007KT 10SM CLR 02/M05 A2997 RMK AO2 T00171050
KJFK - Nyc/Jfk Arpt, New York, USA
Distance from station: SE 23mi, 36km
Updated: 01/18/2021 10:51pm
Partly cloudy
Partly cloudy
 Wind from W
Wind: W 16 mph , 26 km/h
Temperature: 37°F , 3°C
Wind Chill: 28°F , -2°C
Dew Point: 25°F , -4°C
Humidity: 60%
Barometer: 29.95 inHg , 1014.2 hPa
Clouds: Partly cloudy
Visibility: 10 miles , 16 km
Cloud details: Partly cloudy 3600 ft
2021/01/19 03:51 KJFK 190351Z 27014KT 10SM SCT036 03/M04 A2995 RMK AO2 SLP141 T00331039
KHPN - White Plains, New York, USA
Distance from station: NE 25mi, 40km
Updated: 01/18/2021 10:56pm
Mostly cloudy
Mostly cloudy
 Wind from WNW
Wind: WNW 12 mph , 19 km/h
Temperature: 34°F , 1°C
Wind Chill: 25°F , -4°C
Dew Point: 25°F , -4°C
Humidity: 70%
Barometer: 29.90 inHg , 1012.5 hPa
Clouds: Mostly cloudy
Visibility: 10 miles , 16 km
Cloud details: Mostly cloudy 4800 ft
2021/01/19 03:56 KHPN 190356Z 29010KT 10SM BKN048 01/M04 A2990 RMK AO2 SLP131 T00111039 $
 
KSMQ - Somerville, New Jersey, USA
Distance from station: WSW 35mi, 56km
Updated: 01/18/2021 10:53pm
Few Clouds
Few Clouds
 Wind from WSW
Wind: WSW 6 mph , 9 km/h
Temperature: 36°F , 2°C
Wind Chill: 31°F , -1°C
Dew Point: 23°F , -5°C
Humidity: 60%
Barometer: 29.95 inHg , 1014.2 hPa
Clouds: Few Clouds
Visibility: 10 miles , 16 km
Cloud details: Few Clouds 9000 ft
2021/01/19 03:53 KSMQ 190353Z AUTO 25005KT 10SM FEW090 02/M05 A2995 RMK AO2 SLP142 T00171050
K12N - Andover, New Jersey, USA
Distance from station: WNW 36mi, 57km
Updated: 01/18/2021 10:54pm

 Wind from calm
Wind: Calm
Temperature: 34°F , 1°C
Dew Point: 27°F , -3°C
Humidity: 75%
Barometer: 29.92 inHg , 1013.2 hPa
2021/01/19 03:54 K12N 190354Z AUTO 00000KT 01/M03 A2992 RMK AO1 SLP139 T00111033 $
KFRG - Farmingdale, New York, USA
Distance from station: ESE 36mi, 58km
Updated: 01/18/2021 10:53pm
Clear
Clear
 Wind from WNW
Wind: WNW 6 mph , 9 km/h
Temperature: 37°F , 3°C
Wind Chill: 32°F , 0°C
Dew Point: 27°F , -3°C
Humidity: 65%
Barometer: 29.93 inHg , 1013.5 hPa
Clouds: Clear
Visibility: 10 miles , 16 km
2021/01/19 03:53 KFRG 190353Z 29005KT 10SM CLR 03/M03 A2993 RMK AO2 SLP134 T00281033
 
KFWN - Sussex, New Jersey, USA
Distance from station: NW 37mi, 60km
Updated: 01/18/2021 10:53pm
Overcast
Overcast
 Wind from SW
Wind: SW 3 mph , 6 km/h
Temperature: 34°F , 1°C
Dew Point: 28°F , -2°C
Humidity: 81%
Barometer: 29.90 inHg , 1012.5 hPa
Clouds: Overcast
Visibility: 10 miles , 16 km
Cloud details: Few Clouds 3600 ft
Partly cloudy 4500 ft
Overcast 8000 ft
2021/01/19 03:53 KFWN 190353Z AUTO 22003KT 10SM FEW036 SCT045 OVC080 01/M02 A2990 RMK AO2 SLP129 T00061017 $
KSWF - Newburgh/Stewart, New York, USA
Distance from station: 0 44mi, 72km
Updated: 01/18/2021 10:45pm
Overcast
Overcast
 Wind from W
Wind: W 7 mph , 11 km/h
Temperature: 32°F , 0°C
Wind Chill: 25°F , -4°C
Dew Point: 23°F , -5°C
Humidity: 69%
Barometer: 29.90 inHg , 1012.5 hPa
Clouds: Overcast
Visibility: 10 miles , 16 km
Cloud details: Overcast 4500 ft
2021/01/19 03:45 KSWF 190345Z 27006KT 10SM OVC045 00/M05 A2990
KMGJ - Montgomery, New York, USA
Distance from station: NNW 47mi, 75km
Updated: 01/18/2021 10:54pm
Overcast
Overcast
 Wind from SSW
Wind: SSW 6 mph , 9 km/h
Temperature: 32°F , 0°C
Wind Chill: 26°F , -3°C
Dew Point: 23°F , -5°C
Humidity: 69%
Barometer: 29.90 inHg , 1012.5 hPa
Clouds: Overcast
Visibility: 10 miles , 16 km
Cloud details: Mostly cloudy 4500 ft
Overcast 5000 ft
2021/01/19 03:54 KMGJ 190354Z AUTO 21005KT 10SM BKN045 OVC050 00/M05 A2990 RMK AO2 SLP127 T00001050
 
KDXR - Danbury, Connecticut, USA
Distance from station: NE 47mi, 76km
Updated: 01/18/2021 10:53pm
Partly cloudy
Partly cloudy
 Wind from W
Wind: W 5 mph , 7 km/h
Temperature: 34°F , 1°C
Wind Chill: 29°F , -2°C
Dew Point: 19°F , -7°C
Humidity: 56%
Barometer: 29.90 inHg , 1012.5 hPa
Clouds: Partly cloudy
Visibility: 10 miles , 16 km
Cloud details: Partly cloudy 4900 ft
2021/01/19 03:53 KDXR 190353Z AUTO 26004KT 10SM SCT049 01/M07 A2990 RMK AO2 SLP128 T00061067
KBLM - Belmar/Farmdale, New Jersey, USA
Distance from station: S 48mi, 77km
Updated: 01/18/2021 10:56pm
Clear
Clear
 Wind from W
Wind: W 9 mph , 15 km/h, Gust: 21 mph , 33 km/h
Temperature: 36°F , 2°C
Wind Chill: 29°F , -2°C
Dew Point: 23°F , -5°C
Humidity: 60%
Barometer: 29.98 inHg , 1015.2 hPa
Clouds: Clear
Visibility: 10 miles , 16 km
2021/01/19 03:56 KBLM 190356Z AUTO 27008G18KT 10SM CLR 02/M05 A2998 RMK AO2 SLP154 T00171050 FZRANO